DKH2089 ZSPD-ZSYT
Flight info
| Callsign | DKH2089 |
|---|---|
| Flight time | 1h 36m |
| Altitude | 40100 |
| Route | IBEGI B221 XDX/K0854S1190 W174 TAO W5 HCH HCH81A |
| Aircraft | A333/H-SDE3GHIJ2J3J5M1RVWXY/LB2D1 |
Departure
| Time | 2026-05-04 13:02 |
|---|---|
| Airport | Shanghai Pudong International Airport (ZSPD) |
Arrival
| Time | 2026-05-04 14:39 |
|---|---|
| Airport | Yantai Penglai International Airport (ZSYT) |
| Time | Latitude | Longitude | Altitude | Speed | Heading |
|---|---|---|---|---|---|
| 2026-05-04 12:39 | 31.16015 | 121.80489 | 26 ft | 0 kts | 220° |
| 2026-05-04 12:54 | 31.16019 | 121.80492 | 26 ft | 3 kts | 220° |
| 2026-05-04 12:54 | 31.16043 | 121.80516 | 25 ft | 2 kts | 221° |
| 2026-05-04 12:54 | 31.16063 | 121.80537 | 24 ft | 5 kts | 220° |
| 2026-05-04 12:55 | 31.16102 | 121.80560 | 23 ft | 4 kts | 180° |
| 2026-05-04 12:55 | 31.16112 | 121.80561 | 23 ft | 4 kts | 164° |
| 2026-05-04 12:55 | 31.16108 | 121.80563 | 23 ft | 0 kts | 162° |
| 2026-05-04 12:58 | 31.16107 | 121.80563 | 23 ft | 1 kts | 162° |
| 2026-05-04 12:59 | 31.16051 | 121.80583 | 24 ft | 13 kts | 162° |
| 2026-05-04 12:59 | 31.15931 | 121.80627 | 25 ft | 23 kts | 162° |
| 2026-05-04 12:59 | 31.15764 | 121.80691 | 26 ft | 25 kts | 162° |
| 2026-05-04 12:59 | 31.15671 | 121.80760 | 26 ft | 11 kts | 87° |
| 2026-05-04 13:00 | 31.15693 | 121.80832 | 26 ft | 3 kts | 72° |
| 2026-05-04 13:00 | 31.15703 | 121.80869 | 26 ft | 7 kts | 73° |
| 2026-05-04 13:00 | 31.15724 | 121.80947 | 24 ft | 11 kts | 70° |
| 2026-05-04 13:00 | 31.15763 | 121.81081 | 23 ft | 25 kts | 72° |
| 2026-05-04 13:01 | 31.15763 | 121.81220 | 23 ft | 14 kts | 143° |
| 2026-05-04 13:01 | 31.15685 | 121.81255 | 23 ft | 0 kts | 162° |
| 2026-05-04 13:01 | 31.15561 | 121.81300 | 23 ft | 55 kts | 164° |
| 2026-05-04 13:02 | 31.14928 | 121.81542 | 27 ft | 133 kts | 162° |
| 2026-05-04 13:02 | 31.13854 | 121.81926 | 222 ft | 175 kts | 162° |
| 2026-05-04 13:02 | 31.12657 | 121.82333 | 1052 ft | 178 kts | 162° |
| 2026-05-04 13:02 | 31.11549 | 121.82842 | 1990 ft | 167 kts | 159° |
| 2026-05-04 13:03 | 31.10386 | 121.83460 | 2369 ft | 194 kts | 152° |
| 2026-05-04 13:03 | 31.09137 | 121.84320 | 2971 ft | 216 kts | 148° |
| 2026-05-04 13:03 | 31.07799 | 121.85345 | 3636 ft | 237 kts | 147° |
| 2026-05-04 13:03 | 31.06365 | 121.86492 | 4296 ft | 258 kts | 146° |
| 2026-05-04 13:04 | 31.04827 | 121.87741 | 4900 ft | 276 kts | 145° |
| 2026-05-04 13:04 | 31.03223 | 121.89050 | 4908 ft | 282 kts | 145° |
| 2026-05-04 13:04 | 31.01641 | 121.90344 | 4916 ft | 276 kts | 144° |
| 2026-05-04 13:04 | 31.00157 | 121.91814 | 4934 ft | 277 kts | 137° |
| 2026-05-04 13:05 | 30.98742 | 121.93321 | 4931 ft | 277 kts | 137° |
| 2026-05-04 13:05 | 30.97308 | 121.94841 | 4933 ft | 277 kts | 137° |
| 2026-05-04 13:05 | 30.95898 | 121.96336 | 4933 ft | 275 kts | 137° |
| 2026-05-04 13:05 | 30.94495 | 121.97877 | 4927 ft | 276 kts | 130° |
| 2026-05-04 13:06 | 30.93613 | 121.99854 | 4925 ft | 274 kts | 102° |
| 2026-05-04 13:06 | 30.93624 | 122.02117 | 5401 ft | 289 kts | 72° |
| 2026-05-04 13:06 | 30.94239 | 122.04253 | 6738 ft | 280 kts | 69° |
| 2026-05-04 13:06 | 30.94831 | 122.06371 | 7842 ft | 281 kts | 69° |
| 2026-05-04 13:07 | 30.95436 | 122.08542 | 8819 ft | 286 kts | 68° |
| 2026-05-04 13:07 | 30.96045 | 122.10726 | 9830 ft | 289 kts | 68° |
| 2026-05-04 13:07 | 30.96673 | 122.12983 | 10631 ft | 301 kts | 68° |
| 2026-05-04 13:07 | 30.97330 | 122.15346 | 11219 ft | 319 kts | 69° |
| 2026-05-04 13:08 | 30.98025 | 122.17855 | 12061 ft | 328 kts | 69° |
| 2026-05-04 13:08 | 30.98721 | 122.20366 | 12924 ft | 335 kts | 69° |
| 2026-05-04 13:08 | 30.99438 | 122.22956 | 13759 ft | 341 kts | 69° |
| 2026-05-04 13:08 | 31.00002 | 122.25683 | 14544 ft | 352 kts | 83° |
| 2026-05-04 13:09 | 31.00008 | 122.28531 | 15351 ft | 359 kts | 89° |
| 2026-05-04 13:09 | 31.00005 | 122.31449 | 16158 ft | 365 kts | 89° |
| 2026-05-04 13:09 | 31.00005 | 122.34430 | 16964 ft | 370 kts | 89° |
| 2026-05-04 13:09 | 31.00004 | 122.37421 | 17712 ft | 376 kts | 89° |
| 2026-05-04 13:10 | 31.00003 | 122.40494 | 18401 ft | 383 kts | 89° |
| 2026-05-04 13:10 | 31.00003 | 122.43621 | 19052 ft | 391 kts | 89° |
| 2026-05-04 13:10 | 31.00011 | 122.46773 | 19685 ft | 399 kts | 89° |
| 2026-05-04 13:10 | 31.00015 | 122.50010 | 20283 ft | 407 kts | 89° |
| 2026-05-04 13:11 | 31.00020 | 122.53368 | 20859 ft | 415 kts | 90° |
| 2026-05-04 13:11 | 31.00024 | 122.56722 | 21422 ft | 422 kts | 90° |
| 2026-05-04 13:11 | 31.00029 | 122.60158 | 21993 ft | 429 kts | 90° |
| 2026-05-04 13:11 | 31.00031 | 122.63655 | 22511 ft | 437 kts | 90° |
| 2026-05-04 13:12 | 31.00032 | 122.67220 | 23096 ft | 443 kts | 91° |
| 2026-05-04 13:12 | 31.00034 | 122.70792 | 23616 ft | 449 kts | 91° |
| 2026-05-04 13:12 | 31.00033 | 122.74445 | 24198 ft | 454 kts | 91° |
| 2026-05-04 13:12 | 31.00032 | 122.78108 | 24759 ft | 458 kts | 91° |
| 2026-05-04 13:13 | 31.00030 | 122.81846 | 25306 ft | 463 kts | 92° |
| 2026-05-04 13:13 | 31.00025 | 122.85609 | 25871 ft | 468 kts | 92° |
| 2026-05-04 13:13 | 31.00022 | 122.89398 | 26486 ft | 470 kts | 93° |
| 2026-05-04 13:13 | 31.00016 | 122.93162 | 26756 ft | 465 kts | 93° |
| 2026-05-04 13:14 | 31.00037 | 122.96912 | 26669 ft | 466 kts | 89° |
| 2026-05-04 13:14 | 31.00644 | 123.00598 | 26730 ft | 468 kts | 70° |
| 2026-05-04 13:14 | 31.02097 | 123.03978 | 26736 ft | 465 kts | 51° |
| 2026-05-04 13:14 | 31.04090 | 123.06911 | 26743 ft | 462 kts | 47° |
| 2026-05-04 13:15 | 31.06038 | 123.09896 | 26729 ft | 464 kts | 49° |
| 2026-05-04 13:15 | 31.07927 | 123.12918 | 26734 ft | 462 kts | 50° |
| 2026-05-04 13:15 | 31.09812 | 123.15976 | 26728 ft | 463 kts | 50° |
| 2026-05-04 13:15 | 31.11685 | 123.19030 | 26740 ft | 463 kts | 50° |
| 2026-05-04 13:16 | 31.13550 | 123.22079 | 26731 ft | 462 kts | 50° |
| 2026-05-04 13:16 | 31.15409 | 123.25120 | 26736 ft | 461 kts | 50° |
| 2026-05-04 13:16 | 31.17264 | 123.28154 | 26739 ft | 461 kts | 50° |
| 2026-05-04 13:16 | 31.19112 | 123.31179 | 26733 ft | 461 kts | 50° |
| 2026-05-04 13:17 | 31.20979 | 123.34244 | 26736 ft | 461 kts | 50° |
| 2026-05-04 13:17 | 31.22822 | 123.37269 | 26735 ft | 460 kts | 50° |
| 2026-05-04 13:17 | 31.24700 | 123.40347 | 26738 ft | 461 kts | 50° |
| 2026-05-04 13:17 | 31.26546 | 123.43384 | 26738 ft | 461 kts | 50° |
| 2026-05-04 13:18 | 31.28322 | 123.46306 | 26746 ft | 460 kts | 50° |
| 2026-05-04 13:18 | 31.30317 | 123.49317 | 26725 ft | 454 kts | 40° |
| 2026-05-04 13:18 | 31.32761 | 123.51544 | 26734 ft | 436 kts | 21° |
| 2026-05-04 13:18 | 31.35524 | 123.52787 | 26747 ft | 417 kts | 3° |
| 2026-05-04 13:19 | 31.38323 | 123.53027 | 26734 ft | 395 kts | 343° |
| 2026-05-04 13:19 | 31.40981 | 123.52416 | 26760 ft | 383 kts | 335° |
| 2026-05-04 13:19 | 31.43558 | 123.51709 | 26743 ft | 384 kts | 336° |
| 2026-05-04 13:19 | 31.46172 | 123.51015 | 26742 ft | 384 kts | 336° |
| 2026-05-04 13:20 | 31.48800 | 123.50321 | 26742 ft | 384 kts | 336° |
| 2026-05-04 13:20 | 31.51442 | 123.49852 | 26744 ft | 398 kts | 347° |
| 2026-05-04 13:20 | 31.54253 | 123.49821 | 26758 ft | 399 kts | 349° |
| 2026-05-04 13:20 | 31.57045 | 123.49766 | 26742 ft | 398 kts | 348° |
| 2026-05-04 13:21 | 31.59791 | 123.49696 | 26750 ft | 398 kts | 348° |
| 2026-05-04 13:21 | 31.62568 | 123.49614 | 26757 ft | 397 kts | 348° |
| 2026-05-04 13:21 | 31.65344 | 123.49532 | 26739 ft | 398 kts | 348° |
| 2026-05-04 13:21 | 31.68093 | 123.49448 | 26763 ft | 399 kts | 348° |
| 2026-05-04 13:22 | 31.70869 | 123.49363 | 26749 ft | 398 kts | 348° |
| 2026-05-04 13:22 | 31.73643 | 123.49281 | 26744 ft | 397 kts | 348° |
| 2026-05-04 13:22 | 31.76416 | 123.49195 | 26750 ft | 397 kts | 348° |
| 2026-05-04 13:22 | 31.79194 | 123.49155 | 26748 ft | 398 kts | 350° |
| 2026-05-04 13:23 | 31.81942 | 123.49148 | 26749 ft | 398 kts | 350° |
| 2026-05-04 13:23 | 31.84709 | 123.49140 | 26753 ft | 399 kts | 350° |
| 2026-05-04 13:23 | 31.87516 | 123.49131 | 26758 ft | 397 kts | 350° |
| 2026-05-04 13:23 | 31.90279 | 123.49121 | 26746 ft | 397 kts | 350° |
| 2026-05-04 13:24 | 31.93050 | 123.49111 | 26754 ft | 397 kts | 350° |
| 2026-05-04 13:24 | 31.95802 | 123.49102 | 26753 ft | 398 kts | 350° |
| 2026-05-04 13:24 | 31.98564 | 123.49093 | 26756 ft | 398 kts | 350° |
| 2026-05-04 13:25 | 32.04129 | 123.49071 | 26754 ft | 397 kts | 351° |
| 2026-05-04 13:25 | 32.06848 | 123.49063 | 26747 ft | 395 kts | 351° |
| 2026-05-04 13:25 | 32.09632 | 123.49052 | 26751 ft | 397 kts | 351° |
| 2026-05-04 13:25 | 32.12403 | 123.49043 | 26751 ft | 395 kts | 351° |
| 2026-05-04 13:26 | 32.15132 | 123.49033 | 26745 ft | 395 kts | 351° |
| 2026-05-04 13:26 | 32.17883 | 123.49024 | 26751 ft | 395 kts | 351° |
| 2026-05-04 13:26 | 32.20632 | 123.49013 | 26749 ft | 395 kts | 351° |
| 2026-05-04 13:26 | 32.23380 | 123.49005 | 26745 ft | 396 kts | 351° |
| 2026-05-04 13:27 | 32.26136 | 123.48993 | 26759 ft | 396 kts | 351° |
| 2026-05-04 13:27 | 32.28907 | 123.48985 | 26739 ft | 393 kts | 351° |
| 2026-05-04 13:27 | 32.31644 | 123.48975 | 26749 ft | 394 kts | 351° |
| 2026-05-04 13:27 | 32.34383 | 123.48965 | 26754 ft | 394 kts | 351° |
| 2026-05-04 13:28 | 32.37127 | 123.48956 | 26747 ft | 393 kts | 351° |
| 2026-05-04 13:28 | 32.39855 | 123.48946 | 26752 ft | 394 kts | 351° |
| 2026-05-04 13:28 | 32.42588 | 123.48937 | 26747 ft | 393 kts | 351° |
| 2026-05-04 13:28 | 32.45333 | 123.48927 | 26758 ft | 392 kts | 352° |
| 2026-05-04 13:29 | 32.48065 | 123.48916 | 26741 ft | 393 kts | 352° |
| 2026-05-04 13:29 | 32.50794 | 123.48907 | 26747 ft | 392 kts | 352° |
| 2026-05-04 13:29 | 32.53541 | 123.48897 | 26756 ft | 392 kts | 352° |
| 2026-05-04 13:29 | 32.56234 | 123.48886 | 26739 ft | 391 kts | 350° |
| 2026-05-04 13:30 | 32.58981 | 123.48878 | 26748 ft | 391 kts | 352° |
| 2026-05-04 13:30 | 32.61700 | 123.48869 | 26754 ft | 390 kts | 352° |
| 2026-05-04 13:30 | 32.64407 | 123.48859 | 26749 ft | 390 kts | 352° |
| 2026-05-04 13:30 | 32.67112 | 123.48849 | 26747 ft | 390 kts | 352° |
| 2026-05-04 13:31 | 32.69858 | 123.48839 | 26748 ft | 390 kts | 352° |
| 2026-05-04 13:31 | 32.72551 | 123.48829 | 26754 ft | 390 kts | 352° |
| 2026-05-04 13:31 | 32.75264 | 123.48819 | 26741 ft | 391 kts | 353° |
| 2026-05-04 13:31 | 32.77993 | 123.48811 | 26751 ft | 389 kts | 352° |
| 2026-05-04 13:32 | 32.80717 | 123.48798 | 26759 ft | 391 kts | 353° |
| 2026-05-04 13:32 | 32.83406 | 123.48790 | 26744 ft | 388 kts | 353° |
| 2026-05-04 13:32 | 32.86132 | 123.48780 | 26744 ft | 389 kts | 353° |
| 2026-05-04 13:32 | 32.88847 | 123.48770 | 26749 ft | 389 kts | 353° |
| 2026-05-04 13:33 | 32.91546 | 123.48761 | 26746 ft | 389 kts | 353° |
| 2026-05-04 13:33 | 32.94254 | 123.48752 | 26742 ft | 389 kts | 353° |
| 2026-05-04 13:33 | 32.96983 | 123.48743 | 26753 ft | 391 kts | 353° |
| 2026-05-04 13:33 | 32.99708 | 123.48731 | 26750 ft | 390 kts | 353° |
| 2026-05-04 13:34 | 33.02377 | 123.48723 | 26746 ft | 388 kts | 353° |
| 2026-05-04 13:34 | 33.05108 | 123.48711 | 26751 ft | 387 kts | 353° |
| 2026-05-04 13:34 | 33.07792 | 123.48704 | 26743 ft | 387 kts | 353° |
| 2026-05-04 13:34 | 33.10489 | 123.48693 | 26752 ft | 386 kts | 353° |
| 2026-05-04 13:35 | 33.13164 | 123.48683 | 26742 ft | 387 kts | 354° |
| 2026-05-04 13:35 | 33.18571 | 123.48665 | 26744 ft | 387 kts | 353° |
| 2026-05-04 13:35 | 33.21234 | 123.48654 | 26754 ft | 387 kts | 353° |
| 2026-05-04 13:36 | 33.23951 | 123.48644 | 26742 ft | 387 kts | 353° |
| 2026-05-04 13:36 | 33.26617 | 123.48636 | 26744 ft | 386 kts | 353° |
| 2026-05-04 13:36 | 33.29330 | 123.48624 | 26753 ft | 388 kts | 354° |
| 2026-05-04 13:36 | 33.32032 | 123.48615 | 26741 ft | 387 kts | 354° |
| 2026-05-04 13:37 | 33.34699 | 123.48605 | 26745 ft | 386 kts | 354° |
| 2026-05-04 13:37 | 33.37398 | 123.48595 | 26749 ft | 387 kts | 354° |
| 2026-05-04 13:37 | 33.40067 | 123.48586 | 26740 ft | 386 kts | 354° |
| 2026-05-04 13:37 | 33.42758 | 123.48576 | 26742 ft | 386 kts | 354° |
| 2026-05-04 13:38 | 33.45446 | 123.48566 | 26751 ft | 386 kts | 354° |
| 2026-05-04 13:38 | 33.48138 | 123.48556 | 26745 ft | 385 kts | 354° |
| 2026-05-04 13:38 | 33.50832 | 123.48547 | 26750 ft | 384 kts | 354° |
| 2026-05-04 13:38 | 33.53514 | 123.48536 | 26742 ft | 384 kts | 354° |
| 2026-05-04 13:39 | 33.56191 | 123.48527 | 26751 ft | 384 kts | 354° |
| 2026-05-04 13:39 | 33.58860 | 123.48518 | 26745 ft | 384 kts | 354° |
| 2026-05-04 13:39 | 33.61567 | 123.48508 | 26746 ft | 385 kts | 354° |
| 2026-05-04 13:39 | 33.64212 | 123.48498 | 26751 ft | 385 kts | 354° |
| 2026-05-04 13:40 | 33.66913 | 123.48489 | 26741 ft | 384 kts | 354° |
| 2026-05-04 13:40 | 33.69599 | 123.48479 | 26743 ft | 384 kts | 354° |
| 2026-05-04 13:40 | 33.72245 | 123.48470 | 26752 ft | 385 kts | 354° |
| 2026-05-04 13:40 | 33.74928 | 123.48460 | 26746 ft | 384 kts | 354° |
| 2026-05-04 13:41 | 33.77620 | 123.48448 | 26750 ft | 384 kts | 354° |
| 2026-05-04 13:41 | 33.80294 | 123.48439 | 26750 ft | 383 kts | 354° |
| 2026-05-04 13:41 | 33.82941 | 123.48429 | 26748 ft | 383 kts | 354° |
| 2026-05-04 13:42 | 33.88291 | 123.48410 | 26748 ft | 382 kts | 355° |
| 2026-05-04 13:42 | 33.90950 | 123.48400 | 26742 ft | 382 kts | 355° |
| 2026-05-04 13:42 | 33.93618 | 123.48389 | 26747 ft | 383 kts | 355° |
| 2026-05-04 13:42 | 33.96281 | 123.48380 | 26742 ft | 383 kts | 355° |
| 2026-05-04 13:43 | 33.98942 | 123.48371 | 26748 ft | 383 kts | 355° |
| 2026-05-04 13:43 | 34.01595 | 123.48360 | 26743 ft | 383 kts | 355° |
| 2026-05-04 13:43 | 34.04266 | 123.48350 | 26742 ft | 382 kts | 355° |
| 2026-05-04 13:43 | 34.06938 | 123.48341 | 26743 ft | 382 kts | 355° |
| 2026-05-04 13:44 | 34.09604 | 123.48322 | 26734 ft | 381 kts | 353° |
| 2026-05-04 13:44 | 34.12233 | 123.48036 | 26732 ft | 379 kts | 347° |
| 2026-05-04 13:44 | 34.14823 | 123.47708 | 26744 ft | 381 kts | 353° |
| 2026-05-04 13:44 | 34.17491 | 123.47567 | 26747 ft | 381 kts | 352° |
| 2026-05-04 13:45 | 34.20145 | 123.47372 | 26747 ft | 379 kts | 352° |
| 2026-05-04 13:45 | 34.22771 | 123.47160 | 26740 ft | 379 kts | 352° |
| 2026-05-04 13:45 | 34.25392 | 123.46941 | 26737 ft | 379 kts | 352° |
| 2026-05-04 13:45 | 34.28041 | 123.46718 | 26742 ft | 380 kts | 351° |
| 2026-05-04 13:46 | 34.30668 | 123.46492 | 26737 ft | 380 kts | 352° |
| 2026-05-04 13:46 | 34.33318 | 123.46265 | 26736 ft | 379 kts | 352° |
| 2026-05-04 13:46 | 34.35934 | 123.46040 | 26735 ft | 380 kts | 352° |
| 2026-05-04 13:46 | 34.38589 | 123.45812 | 26741 ft | 380 kts | 352° |
| 2026-05-04 13:47 | 34.41204 | 123.45587 | 26733 ft | 380 kts | 352° |
| 2026-05-04 13:47 | 34.43851 | 123.45358 | 26734 ft | 379 kts | 352° |
| 2026-05-04 13:47 | 34.46466 | 123.45135 | 26732 ft | 379 kts | 352° |
| 2026-05-04 13:47 | 34.49101 | 123.44906 | 26735 ft | 380 kts | 352° |
| 2026-05-04 13:48 | 34.51741 | 123.44679 | 26728 ft | 380 kts | 352° |
| 2026-05-04 13:48 | 34.54385 | 123.44452 | 26736 ft | 380 kts | 352° |
| 2026-05-04 13:48 | 34.57002 | 123.44225 | 26736 ft | 379 kts | 352° |
| 2026-05-04 13:48 | 34.59646 | 123.43996 | 26734 ft | 380 kts | 352° |
| 2026-05-04 13:49 | 34.62288 | 123.43769 | 26731 ft | 379 kts | 352° |
| 2026-05-04 13:49 | 34.64914 | 123.43540 | 26732 ft | 380 kts | 352° |
| 2026-05-04 13:49 | 34.67553 | 123.43312 | 26730 ft | 379 kts | 352° |
| 2026-05-04 13:49 | 34.70174 | 123.43085 | 26726 ft | 379 kts | 352° |
| 2026-05-04 13:50 | 34.72799 | 123.42857 | 26724 ft | 379 kts | 352° |
| 2026-05-04 13:50 | 34.75425 | 123.42630 | 26732 ft | 379 kts | 352° |
| 2026-05-04 13:50 | 34.78058 | 123.42402 | 26729 ft | 380 kts | 352° |
| 2026-05-04 13:50 | 34.80718 | 123.42170 | 26731 ft | 380 kts | 352° |
| 2026-05-04 13:51 | 34.83349 | 123.41943 | 26717 ft | 380 kts | 352° |
| 2026-05-04 13:51 | 34.85968 | 123.41722 | 26724 ft | 379 kts | 352° |
| 2026-05-04 13:51 | 34.88626 | 123.41496 | 26723 ft | 380 kts | 352° |
| 2026-05-04 13:51 | 34.91247 | 123.41274 | 26720 ft | 380 kts | 352° |
| 2026-05-04 13:52 | 34.96502 | 123.40826 | 26724 ft | 379 kts | 352° |
| 2026-05-04 13:52 | 34.99151 | 123.40601 | 26722 ft | 379 kts | 353° |
| 2026-05-04 13:52 | 35.01779 | 123.40457 | 26718 ft | 381 kts | 355° |
| 2026-05-04 13:53 | 35.04437 | 123.40398 | 26723 ft | 380 kts | 355° |
| 2026-05-04 13:53 | 35.07097 | 123.40329 | 26719 ft | 381 kts | 355° |
| 2026-05-04 13:53 | 35.09714 | 123.40258 | 26715 ft | 380 kts | 355° |
| 2026-05-04 13:54 | 35.15025 | 123.40111 | 26718 ft | 380 kts | 355° |
| 2026-05-04 13:54 | 35.17679 | 123.40037 | 26721 ft | 380 kts | 355° |
| 2026-05-04 13:54 | 35.22947 | 123.39893 | 26717 ft | 380 kts | 355° |
| 2026-05-04 13:55 | 35.25576 | 123.39820 | 26722 ft | 380 kts | 355° |
| 2026-05-04 13:55 | 35.30874 | 123.39674 | 26717 ft | 379 kts | 355° |
| 2026-05-04 13:55 | 35.33531 | 123.39600 | 26722 ft | 379 kts | 355° |
| 2026-05-04 13:56 | 35.36151 | 123.39528 | 26717 ft | 379 kts | 355° |
| 2026-05-04 13:56 | 35.38798 | 123.39454 | 26720 ft | 380 kts | 355° |
| 2026-05-04 13:56 | 35.44085 | 123.39308 | 26718 ft | 379 kts | 355° |
| 2026-05-04 13:57 | 35.46698 | 123.39235 | 26717 ft | 380 kts | 355° |
| 2026-05-04 13:57 | 35.49357 | 123.39162 | 26718 ft | 380 kts | 355° |
| 2026-05-04 13:58 | 35.57252 | 123.38944 | 26714 ft | 378 kts | 355° |
| 2026-05-04 13:58 | 35.62509 | 123.38796 | 26719 ft | 379 kts | 355° |
| 2026-05-04 13:58 | 35.65174 | 123.38721 | 26713 ft | 378 kts | 355° |
| 2026-05-04 13:59 | 35.67798 | 123.38648 | 26717 ft | 379 kts | 355° |
| 2026-05-04 13:59 | 35.70427 | 123.38574 | 26715 ft | 378 kts | 355° |
| 2026-05-04 13:59 | 35.75673 | 123.38429 | 26716 ft | 378 kts | 355° |
| 2026-05-04 14:00 | 35.78336 | 123.38354 | 26716 ft | 378 kts | 355° |
| 2026-05-04 14:00 | 35.83598 | 123.38206 | 26716 ft | 378 kts | 355° |
| 2026-05-04 14:00 | 35.86241 | 123.38133 | 26714 ft | 378 kts | 355° |
| 2026-05-04 14:01 | 35.88894 | 123.38058 | 26714 ft | 379 kts | 356° |
| 2026-05-04 14:01 | 35.91513 | 123.37985 | 26712 ft | 379 kts | 356° |
| 2026-05-04 14:01 | 35.96774 | 123.37837 | 26713 ft | 378 kts | 356° |
| 2026-05-04 14:02 | 35.99416 | 123.37763 | 26714 ft | 378 kts | 356° |
| 2026-05-04 14:02 | 36.02059 | 123.37688 | 26706 ft | 378 kts | 356° |
| 2026-05-04 14:02 | 36.04660 | 123.37615 | 26712 ft | 378 kts | 356° |
| 2026-05-04 14:02 | 36.07291 | 123.37541 | 26713 ft | 377 kts | 356° |
| 2026-05-04 14:03 | 36.09905 | 123.37466 | 26710 ft | 377 kts | 356° |
| 2026-05-04 14:03 | 36.12547 | 123.37392 | 26712 ft | 377 kts | 356° |
| 2026-05-04 14:03 | 36.15176 | 123.37318 | 26710 ft | 376 kts | 356° |
| 2026-05-04 14:03 | 36.17768 | 123.37246 | 26709 ft | 376 kts | 356° |
| 2026-05-04 14:04 | 36.23029 | 123.37097 | 26708 ft | 376 kts | 356° |
| 2026-05-04 14:04 | 36.25657 | 123.37022 | 26708 ft | 376 kts | 356° |
| 2026-05-04 14:04 | 36.28247 | 123.36949 | 26713 ft | 376 kts | 356° |
| 2026-05-04 14:05 | 36.33481 | 123.36800 | 26711 ft | 375 kts | 356° |
| 2026-05-04 14:05 | 36.36072 | 123.36726 | 26708 ft | 375 kts | 356° |
| 2026-05-04 14:05 | 36.38701 | 123.36652 | 26706 ft | 374 kts | 356° |
| 2026-05-04 14:06 | 36.41314 | 123.36578 | 26705 ft | 374 kts | 357° |
| 2026-05-04 14:06 | 36.43903 | 123.36507 | 26704 ft | 374 kts | 357° |
| 2026-05-04 14:06 | 36.46516 | 123.36433 | 26706 ft | 373 kts | 357° |
| 2026-05-04 14:06 | 36.49101 | 123.36362 | 26703 ft | 374 kts | 357° |
| 2026-05-04 14:07 | 36.51715 | 123.36291 | 26702 ft | 374 kts | 357° |
| 2026-05-04 14:07 | 36.54299 | 123.36218 | 26703 ft | 375 kts | 357° |
| 2026-05-04 14:07 | 36.56923 | 123.36146 | 26697 ft | 375 kts | 357° |
| 2026-05-04 14:07 | 36.59531 | 123.36074 | 26702 ft | 374 kts | 357° |
| 2026-05-04 14:08 | 36.62128 | 123.36002 | 26699 ft | 374 kts | 357° |
| 2026-05-04 14:08 | 36.64731 | 123.35929 | 26699 ft | 374 kts | 357° |
| 2026-05-04 14:08 | 36.67329 | 123.35857 | 26700 ft | 374 kts | 357° |
| 2026-05-04 14:08 | 36.69926 | 123.35784 | 26699 ft | 374 kts | 358° |
| 2026-05-04 14:09 | 36.75133 | 123.35639 | 26693 ft | 374 kts | 358° |
| 2026-05-04 14:09 | 36.77723 | 123.35566 | 26696 ft | 374 kts | 358° |
| 2026-05-04 14:10 | 36.82585 | 123.33610 | 26694 ft | 374 kts | 323° |
| 2026-05-04 14:10 | 36.84337 | 123.31246 | 26688 ft | 378 kts | 304° |
| 2026-05-04 14:10 | 36.85363 | 123.28215 | 26694 ft | 381 kts | 285° |
| 2026-05-04 14:10 | 36.85867 | 123.24998 | 26705 ft | 381 kts | 284° |
| 2026-05-04 14:11 | 36.86527 | 123.21784 | 26690 ft | 381 kts | 287° |
| 2026-05-04 14:11 | 36.87980 | 123.15496 | 26698 ft | 381 kts | 288° |
| 2026-05-04 14:11 | 36.88745 | 123.12286 | 26686 ft | 381 kts | 288° |
| 2026-05-04 14:12 | 36.89500 | 123.09135 | 26691 ft | 381 kts | 288° |
| 2026-05-04 14:12 | 36.90260 | 123.05974 | 26694 ft | 381 kts | 288° |
| 2026-05-04 14:12 | 36.91773 | 122.99667 | 26690 ft | 382 kts | 288° |
| 2026-05-04 14:13 | 36.92535 | 122.96475 | 26690 ft | 382 kts | 288° |
| 2026-05-04 14:13 | 36.93300 | 122.93283 | 26693 ft | 383 kts | 288° |
| 2026-05-04 14:13 | 36.94057 | 122.90113 | 26684 ft | 385 kts | 288° |
| 2026-05-04 14:13 | 36.94822 | 122.86907 | 26687 ft | 385 kts | 288° |
| 2026-05-04 14:14 | 36.95578 | 122.83727 | 26686 ft | 385 kts | 288° |
| 2026-05-04 14:14 | 36.97106 | 122.77304 | 26683 ft | 384 kts | 288° |
| 2026-05-04 14:14 | 36.97863 | 122.74107 | 26686 ft | 383 kts | 288° |
| 2026-05-04 14:15 | 36.99379 | 122.67710 | 26683 ft | 384 kts | 288° |
| 2026-05-04 14:15 | 37.00885 | 122.61330 | 26678 ft | 384 kts | 288° |
| 2026-05-04 14:16 | 37.02398 | 122.54906 | 26679 ft | 384 kts | 288° |
| 2026-05-04 14:16 | 37.03162 | 122.51658 | 26680 ft | 385 kts | 288° |
| 2026-05-04 14:17 | 37.04675 | 122.45207 | 26673 ft | 384 kts | 288° |
| 2026-05-04 14:17 | 37.05437 | 122.41947 | 26675 ft | 384 kts | 288° |
| 2026-05-04 14:17 | 37.06942 | 122.35510 | 26664 ft | 383 kts | 289° |
| 2026-05-04 14:18 | 37.08061 | 122.32413 | 26659 ft | 381 kts | 305° |
| 2026-05-04 14:18 | 37.12092 | 122.28200 | 26672 ft | 379 kts | 327° |
| 2026-05-04 14:19 | 37.16431 | 122.24341 | 26665 ft | 380 kts | 324° |
| 2026-05-04 14:19 | 37.18351 | 122.22066 | 26643 ft | 381 kts | 308° |
| 2026-05-04 14:19 | 37.19570 | 122.19106 | 26662 ft | 385 kts | 289° |
| 2026-05-04 14:19 | 37.20285 | 122.15823 | 26671 ft | 386 kts | 287° |
| 2026-05-04 14:20 | 37.21057 | 122.12570 | 26659 ft | 386 kts | 288° |
| 2026-05-04 14:20 | 37.21867 | 122.09325 | 26657 ft | 385 kts | 289° |
| 2026-05-04 14:20 | 37.22684 | 122.06125 | 26652 ft | 385 kts | 289° |
| 2026-05-04 14:21 | 37.24335 | 121.99696 | 26556 ft | 372 kts | 289° |
| 2026-05-04 14:21 | 37.25110 | 121.96674 | 25413 ft | 371 kts | 289° |
| 2026-05-04 14:21 | 37.25909 | 121.93573 | 23560 ft | 382 kts | 289° |
| 2026-05-04 14:21 | 37.26704 | 121.90472 | 22252 ft | 376 kts | 289° |
| 2026-05-04 14:22 | 37.27493 | 121.87394 | 21073 ft | 367 kts | 290° |
| 2026-05-04 14:22 | 37.28257 | 121.84412 | 19930 ft | 366 kts | 290° |
| 2026-05-04 14:22 | 37.29037 | 121.81366 | 19625 ft | 355 kts | 290° |
| 2026-05-04 14:22 | 37.29775 | 121.78478 | 19387 ft | 345 kts | 290° |
| 2026-05-04 14:23 | 37.31205 | 121.72872 | 18899 ft | 335 kts | 290° |
| 2026-05-04 14:23 | 37.31910 | 121.70106 | 18690 ft | 334 kts | 290° |
| 2026-05-04 14:23 | 37.32624 | 121.67298 | 18482 ft | 335 kts | 290° |
| 2026-05-04 14:24 | 37.33329 | 121.64529 | 18279 ft | 332 kts | 290° |
| 2026-05-04 14:24 | 37.34029 | 121.61769 | 18089 ft | 331 kts | 290° |
| 2026-05-04 14:24 | 37.34724 | 121.59027 | 17901 ft | 330 kts | 290° |
| 2026-05-04 14:24 | 37.35419 | 121.56287 | 17712 ft | 329 kts | 290° |
| 2026-05-04 14:25 | 37.36119 | 121.53522 | 17512 ft | 329 kts | 290° |
| 2026-05-04 14:25 | 37.37505 | 121.48035 | 16807 ft | 324 kts | 290° |
| 2026-05-04 14:25 | 37.38191 | 121.45306 | 16422 ft | 323 kts | 290° |
| 2026-05-04 14:26 | 37.38866 | 121.42626 | 16024 ft | 320 kts | 289° |
| 2026-05-04 14:26 | 37.39545 | 121.39925 | 15600 ft | 318 kts | 289° |
| 2026-05-04 14:26 | 37.40205 | 121.37303 | 15177 ft | 316 kts | 290° |
| 2026-05-04 14:26 | 37.40878 | 121.34663 | 14737 ft | 315 kts | 289° |
| 2026-05-04 14:27 | 37.41545 | 121.32056 | 14287 ft | 314 kts | 289° |
| 2026-05-04 14:27 | 37.42215 | 121.29432 | 13825 ft | 313 kts | 289° |
| 2026-05-04 14:27 | 37.42875 | 121.26847 | 13375 ft | 313 kts | 289° |
| 2026-05-04 14:27 | 37.43539 | 121.24238 | 12911 ft | 312 kts | 289° |
| 2026-05-04 14:28 | 37.44201 | 121.21645 | 12451 ft | 311 kts | 289° |
| 2026-05-04 14:28 | 37.44855 | 121.19082 | 12006 ft | 309 kts | 290° |
| 2026-05-04 14:28 | 37.45930 | 121.16761 | 11625 ft | 315 kts | 310° |
| 2026-05-04 14:28 | 37.47463 | 121.14648 | 10539 ft | 336 kts | 313° |
| 2026-05-04 14:29 | 37.50523 | 121.10419 | 10066 ft | 308 kts | 314° |
| 2026-05-04 14:29 | 37.54247 | 121.08152 | 8999 ft | 308 kts | 358° |
| 2026-05-04 14:30 | 37.56271 | 121.08674 | 8900 ft | 296 kts | 22° |
| 2026-05-04 14:30 | 37.57914 | 121.10124 | 8898 ft | 282 kts | 39° |
| 2026-05-04 14:30 | 37.60796 | 121.13348 | 8269 ft | 277 kts | 40° |
| 2026-05-04 14:31 | 37.62227 | 121.14983 | 7915 ft | 277 kts | 40° |
| 2026-05-04 14:31 | 37.65022 | 121.18188 | 6645 ft | 274 kts | 39° |
| 2026-05-04 14:32 | 37.67716 | 121.21282 | 5696 ft | 254 kts | 40° |
| 2026-05-04 14:32 | 37.69104 | 121.22533 | 5439 ft | 239 kts | 17° |
| 2026-05-04 14:32 | 37.70735 | 121.22735 | 5402 ft | 230 kts | 346° |
| 2026-05-04 14:32 | 37.72179 | 121.21973 | 4893 ft | 232 kts | 321° |
| 2026-05-04 14:33 | 37.73407 | 121.20600 | 4126 ft | 243 kts | 313° |
| 2026-05-04 14:33 | 37.74590 | 121.19082 | 3795 ft | 232 kts | 311° |
| 2026-05-04 14:33 | 37.75672 | 121.17628 | 3636 ft | 223 kts | 310° |
| 2026-05-04 14:33 | 37.76711 | 121.16209 | 3489 ft | 214 kts | 309° |
| 2026-05-04 14:34 | 37.77677 | 121.14862 | 3361 ft | 201 kts | 304° |
| 2026-05-04 14:34 | 37.78128 | 121.13332 | 3300 ft | 174 kts | 267° |
| 2026-05-04 14:34 | 37.77806 | 121.11974 | 3142 ft | 159 kts | 246° |
| 2026-05-04 14:34 | 37.77294 | 121.10777 | 2886 ft | 152 kts | 226° |
| 2026-05-04 14:35 | 37.76546 | 121.09917 | 2731 ft | 139 kts | 223° |
| 2026-05-04 14:35 | 37.75843 | 121.09103 | 2510 ft | 131 kts | 223° |
| 2026-05-04 14:35 | 37.75204 | 121.08362 | 2320 ft | 125 kts | 222° |
| 2026-05-04 14:35 | 37.74560 | 121.07626 | 2158 ft | 123 kts | 221° |
| 2026-05-04 14:36 | 37.73936 | 121.06915 | 1997 ft | 119 kts | 221° |
| 2026-05-04 14:36 | 37.73332 | 121.06224 | 1833 ft | 115 kts | 221° |
| 2026-05-04 14:36 | 37.72729 | 121.05534 | 1673 ft | 117 kts | 221° |
| 2026-05-04 14:36 | 37.72131 | 121.04851 | 1518 ft | 118 kts | 220° |
| 2026-05-04 14:37 | 37.71520 | 121.04153 | 1356 ft | 116 kts | 220° |
| 2026-05-04 14:37 | 37.70908 | 121.03454 | 1194 ft | 119 kts | 220° |
| 2026-05-04 14:37 | 37.70292 | 121.02752 | 1036 ft | 119 kts | 219° |
| 2026-05-04 14:37 | 37.69669 | 121.02041 | 870 ft | 119 kts | 218° |
| 2026-05-04 14:38 | 37.69047 | 121.01333 | 703 ft | 118 kts | 219° |
| 2026-05-04 14:38 | 37.68425 | 121.00620 | 549 ft | 120 kts | 216° |
| 2026-05-04 14:38 | 37.67789 | 120.99910 | 381 ft | 123 kts | 220° |
| 2026-05-04 14:38 | 37.67168 | 120.99187 | 231 ft | 124 kts | 218° |
| 2026-05-04 14:39 | 37.66555 | 120.98504 | 166 ft | 97 kts | 222° |
| 2026-05-04 14:39 | 37.66219 | 120.98113 | 166 ft | 48 kts | 221° |
| 2026-05-04 14:39 | 37.65952 | 120.97810 | 166 ft | 50 kts | 218° |
| 2026-05-04 14:40 | 37.65515 | 120.97612 | 166 ft | 17 kts | 163° |
| 2026-05-04 14:40 | 37.65435 | 120.97713 | 166 ft | 15 kts | 130° |
| 2026-05-04 14:40 | 37.65363 | 120.97780 | 166 ft | 8 kts | 179° |
| 2026-05-04 14:40 | 37.65340 | 120.97781 | 166 ft | 0 kts | 179° |
| 2026-05-04 14:41 | 37.65322 | 120.97780 | 166 ft | 0 kts | 181° |
| 2026-05-04 14:42 | 36.36371 | 120.08272 | 39 ft | 0 kts | 192° |